sensor_id;sensor_type;location;lat;lon;timestamp;temperature;humidity
8459;DHT22;4266;48.816;9.154;2024-03-02T00:00:33;5.90;99.90
8459;DHT22;4266;48.816;9.154;2024-03-02T00:02:59;5.90;99.90
8459;DHT22;4266;48.816;9.154;2024-03-02T00:05:25;5.90;99.90
8459;DHT22;4266;48.816;9.154;2024-03-02T00:07:54;6.00;99.90
8459;DHT22;4266;48.816;9.154;2024-03-02T00:10:21;6.10;99.90
8459;DHT22;4266;48.816;9.154;2024-03-02T00:12:47;6.10;99.90
8459;DHT22;4266;48.816;9.154;2024-03-02T00:17:55;6.10;99.90
8459;DHT22;4266;48.816;9.154;2024-03-02T00:20:22;6.10;99.90
8459;DHT22;4266;48.816;9.154;2024-03-02T00:22:47;6.20;99.90
8459;DHT22;4266;48.816;9.154;2024-03-02T00:25:14;6.20;99.90
8459;DHT22;4266;48.816;9.154;2024-03-02T00:27:40;6.10;99.90
8459;DHT22;4266;48.816;9.154;2024-03-02T00:32:49;6.10;99.90
8459;DHT22;4266;48.816;9.154;2024-03-02T00:35:14;6.00;99.90
8459;DHT22;4266;48.816;9.154;2024-03-02T00:37:40;6.10;99.90
8459;DHT22;4266;48.816;9.154;2024-03-02T00:40:08;6.10;99.90
8459;DHT22;4266;48.816;9.154;2024-03-02T00:42:34;6.10;99.90
8459;DHT22;4266;48.816;9.154;2024-03-02T00:44:59;6.10;99.90
8459;DHT22;4266;48.816;9.154;2024-03-02T00:47:25;6.00;99.90
8459;DHT22;4266;48.816;9.154;2024-03-02T00:49:51;6.00;99.90
8459;DHT22;4266;48.816;9.154;2024-03-02T00:52:16;6.10;99.90
8459;DHT22;4266;48.816;9.154;2024-03-02T00:54:42;6.00;99.90
8459;DHT22;4266;48.816;9.154;2024-03-02T00:57:10;6.00;99.90
8459;DHT22;4266;48.816;9.154;2024-03-02T00:59:34;6.00;99.90
8459;DHT22;4266;48.816;9.154;2024-03-02T01:02:00;6.00;99.90
8459;DHT22;4266;48.816;9.154;2024-03-02T01:04:25;6.00;99.90
8459;DHT22;4266;48.816;9.154;2024-03-02T01:06:51;6.10;99.90
8459;DHT22;4266;48.816;9.154;2024-03-02T01:09:17;6.00;99.90
8459;DHT22;4266;48.816;9.154;2024-03-02T01:11:42;6.00;99.90
8459;DHT22;4266;48.816;9.154;2024-03-02T01:14:09;6.00;99.90
8459;DHT22;4266;48.816;9.154;2024-03-02T01:16:35;5.90;99.90
8459;DHT22;4266;48.816;9.154;2024-03-02T01:19:01;5.90;99.90
8459;DHT22;4266;48.816;9.154;2024-03-02T01:21:26;5.90;99.90
8459;DHT22;4266;48.816;9.154;2024-03-02T01:23:53;5.90;99.90
8459;DHT22;4266;48.816;9.154;2024-03-02T01:26:19;5.80;99.90
8459;DHT22;4266;48.816;9.154;2024-03-02T01:28:44;5.80;99.90
8459;DHT22;4266;48.816;9.154;2024-03-02T01:31:11;5.90;99.90
8459;DHT22;4266;48.816;9.154;2024-03-02T01:33:36;5.80;99.90
8459;DHT22;4266;48.816;9.154;2024-03-02T01:36:04;5.90;99.90
8459;DHT22;4266;48.816;9.154;2024-03-02T01:38:29;5.90;99.90
8459;DHT22;4266;48.816;9.154;2024-03-02T01:40:55;5.90;99.90
8459;DHT22;4266;48.816;9.154;2024-03-02T01:43:22;5.80;99.90
8459;DHT22;4266;48.816;9.154;2024-03-02T01:45:47;5.80;99.90
8459;DHT22;4266;48.816;9.154;2024-03-02T01:48:14;5.70;99.90
8459;DHT22;4266;48.816;9.154;2024-03-02T01:50:39;5.70;99.90
8459;DHT22;4266;48.816;9.154;2024-03-02T01:53:05;5.60;99.90
8459;DHT22;4266;48.816;9.154;2024-03-02T01:55:31;5.40;99.90
8459;DHT22;4266;48.816;9.154;2024-03-02T01:57:57;5.20;99.90
8459;DHT22;4266;48.816;9.154;2024-03-02T02:00:23;5.20;99.90
8459;DHT22;4266;48.816;9.154;2024-03-02T02:02:48;5.10;99.90
8459;DHT22;4266;48.816;9.154;2024-03-02T02:05:15;5.10;99.90
8459;DHT22;4266;48.816;9.154;2024-03-02T02:07:41;5.10;99.90
8459;DHT22;4266;48.816;9.154;2024-03-02T02:10:07;5.10;99.90
8459;DHT22;4266;48.816;9.154;2024-03-02T02:12:33;5.10;99.90
8459;DHT22;4266;48.816;9.154;2024-03-02T02:14:59;5.00;99.90
8459;DHT22;4266;48.816;9.154;2024-03-02T02:17:25;4.90;99.90
8459;DHT22;4266;48.816;9.154;2024-03-02T02:19:51;4.80;99.90
8459;DHT22;4266;48.816;9.154;2024-03-02T02:22:16;4.80;99.90
8459;DHT22;4266;48.816;9.154;2024-03-02T02:24:42;4.80;99.90
8459;DHT22;4266;48.816;9.154;2024-03-02T02:27:09;4.90;99.90
8459;DHT22;4266;48.816;9.154;2024-03-02T02:29:34;4.90;99.90
8459;DHT22;4266;48.816;9.154;2024-03-02T02:32:00;4.90;99.90
8459;DHT22;4266;48.816;9.154;2024-03-02T02:34:26;4.80;99.90
8459;DHT22;4266;48.816;9.154;2024-03-02T02:36:52;4.80;99.90
8459;DHT22;4266;48.816;9.154;2024-03-02T02:39:18;4.80;99.90
8459;DHT22;4266;48.816;9.154;2024-03-02T02:41:43;4.70;99.90
8459;DHT22;4266;48.816;9.154;2024-03-02T02:44:10;4.80;99.90
8459;DHT22;4266;48.816;9.154;2024-03-02T02:46:35;4.80;99.90
8459;DHT22;4266;48.816;9.154;2024-03-02T02:49:01;4.80;99.90
8459;DHT22;4266;48.816;9.154;2024-03-02T02:51:27;4.70;99.90
8459;DHT22;4266;48.816;9.154;2024-03-02T02:53:52;4.70;99.90
8459;DHT22;4266;48.816;9.154;2024-03-02T02:56:18;4.60;99.90
8459;DHT22;4266;48.816;9.154;2024-03-02T02:58:45;4.50;99.90
8459;DHT22;4266;48.816;9.154;2024-03-02T03:01:10;4.50;99.90
8459;DHT22;4266;48.816;9.154;2024-03-02T03:03:36;4.50;99.90
8459;DHT22;4266;48.816;9.154;2024-03-02T03:06:02;4.40;99.90
8459;DHT22;4266;48.816;9.154;2024-03-02T03:08:28;4.30;99.90
8459;DHT22;4266;48.816;9.154;2024-03-02T03:10:54;4.30;99.90
8459;DHT22;4266;48.816;9.154;2024-03-02T03:13:20;4.20;99.90
8459;DHT22;4266;48.816;9.154;2024-03-02T03:15:45;4.30;99.90
8459;DHT22;4266;48.816;9.154;2024-03-02T03:18:12;4.30;99.90
8459;DHT22;4266;48.816;9.154;2024-03-02T03:20:38;4.30;99.90
8459;DHT22;4266;48.816;9.154;2024-03-02T03:23:04;4.20;99.90
8459;DHT22;4266;48.816;9.154;2024-03-02T03:25:30;4.20;99.90
8459;DHT22;4266;48.816;9.154;2024-03-02T03:27:56;4.10;99.90
8459;DHT22;4266;48.816;9.154;2024-03-02T03:30:21;4.10;99.90
8459;DHT22;4266;48.816;9.154;2024-03-02T03:32:47;4.00;99.90
8459;DHT22;4266;48.816;9.154;2024-03-02T03:35:14;4.00;99.90
8459;DHT22;4266;48.816;9.154;2024-03-02T03:37:40;4.10;99.90
8459;DHT22;4266;48.816;9.154;2024-03-02T03:40:06;4.10;99.90
8459;DHT22;4266;48.816;9.154;2024-03-02T03:42:33;4.10;99.90
8459;DHT22;4266;48.816;9.154;2024-03-02T03:44:59;4.10;99.90
8459;DHT22;4266;48.816;9.154;2024-03-02T03:47:24;4.10;99.90
8459;DHT22;4266;48.816;9.154;2024-03-02T03:49:50;4.20;99.90
8459;DHT22;4266;48.816;9.154;2024-03-02T03:52:16;4.20;99.90
8459;DHT22;4266;48.816;9.154;2024-03-02T03:54:42;4.20;99.90
8459;DHT22;4266;48.816;9.154;2024-03-02T03:57:08;4.20;99.90
8459;DHT22;4266;48.816;9.154;2024-03-02T03:59:33;4.10;99.90
8459;DHT22;4266;48.816;9.154;2024-03-02T04:01:59;4.10;99.90
8459;DHT22;4266;48.816;9.154;2024-03-02T04:04:26;4.00;99.90
8459;DHT22;4266;48.816;9.154;2024-03-02T04:06:51;4.00;99.90
8459;DHT22;4266;48.816;9.154;2024-03-02T04:09:17;4.00;99.90
8459;DHT22;4266;48.816;9.154;2024-03-02T04:11:42;4.00;99.90
8459;DHT22;4266;48.816;9.154;2024-03-02T04:14:08;4.00;99.90
8459;DHT22;4266;48.816;9.154;2024-03-02T04:16:34;3.90;99.90
8459;DHT22;4266;48.816;9.154;2024-03-02T04:18:59;3.90;99.90
8459;DHT22;4266;48.816;9.154;2024-03-02T04:21:25;3.90;99.90
8459;DHT22;4266;48.816;9.154;2024-03-02T04:23:51;3.90;99.90
8459;DHT22;4266;48.816;9.154;2024-03-02T04:26:16;3.80;99.90
8459;DHT22;4266;48.816;9.154;2024-03-02T04:28:43;3.60;99.90
8459;DHT22;4266;48.816;9.154;2024-03-02T04:31:09;3.60;99.90
8459;DHT22;4266;48.816;9.154;2024-03-02T04:33:34;3.70;99.90
8459;DHT22;4266;48.816;9.154;2024-03-02T04:36:00;3.70;99.90
8459;DHT22;4266;48.816;9.154;2024-03-02T04:38:26;3.70;99.90
8459;DHT22;4266;48.816;9.154;2024-03-02T04:40:51;3.60;99.90
8459;DHT22;4266;48.816;9.154;2024-03-02T04:43:18;3.60;99.90
8459;DHT22;4266;48.816;9.154;2024-03-02T04:45:44;3.60;99.90
8459;DHT22;4266;48.816;9.154;2024-03-02T04:48:10;3.50;99.90
8459;DHT22;4266;48.816;9.154;2024-03-02T04:50:36;3.50;99.90
8459;DHT22;4266;48.816;9.154;2024-03-02T04:53:03;3.50;99.90
8459;DHT22;4266;48.816;9.154;2024-03-02T04:55:29;3.50;99.90
8459;DHT22;4266;48.816;9.154;2024-03-02T04:58:09;3.60;99.90
8459;DHT22;4266;48.816;9.154;2024-03-02T05:00:35;3.60;99.90
8459;DHT22;4266;48.816;9.154;2024-03-02T05:03:01;3.70;99.90
8459;DHT22;4266;48.816;9.154;2024-03-02T05:05:26;3.60;99.90
8459;DHT22;4266;48.816;9.154;2024-03-02T05:07:53;3.80;99.90
8459;DHT22;4266;48.816;9.154;2024-03-02T05:10:18;3.70;99.90
8459;DHT22;4266;48.816;9.154;2024-03-02T05:12:45;3.60;99.90
8459;DHT22;4266;48.816;9.154;2024-03-02T05:15:17;3.60;99.90
8459;DHT22;4266;48.816;9.154;2024-03-02T05:17:43;3.60;99.90
8459;DHT22;4266;48.816;9.154;2024-03-02T05:20:10;3.70;99.90
8459;DHT22;4266;48.816;9.154;2024-03-02T05:22:35;3.60;99.90
8459;DHT22;4266;48.816;9.154;2024-03-02T05:25:01;3.60;99.90
8459;DHT22;4266;48.816;9.154;2024-03-02T05:27:27;3.60;99.90
8459;DHT22;4266;48.816;9.154;2024-03-02T05:29:52;3.50;99.90
8459;DHT22;4266;48.816;9.154;2024-03-02T05:32:18;3.60;99.90
8459;DHT22;4266;48.816;9.154;2024-03-02T05:34:45;3.50;99.90
8459;DHT22;4266;48.816;9.154;2024-03-02T05:37:11;3.50;99.90
8459;DHT22;4266;48.816;9.154;2024-03-02T05:39:37;3.50;99.90
8459;DHT22;4266;48.816;9.154;2024-03-02T05:42:03;3.50;99.90
8459;DHT22;4266;48.816;9.154;2024-03-02T05:44:28;3.60;99.90
8459;DHT22;4266;48.816;9.154;2024-03-02T05:46:54;3.60;99.90
8459;DHT22;4266;48.816;9.154;2024-03-02T05:49:20;3.60;99.90
8459;DHT22;4266;48.816;9.154;2024-03-02T05:51:45;3.70;99.90
8459;DHT22;4266;48.816;9.154;2024-03-02T05:54:11;3.70;99.90
8459;DHT22;4266;48.816;9.154;2024-03-02T05:56:38;3.70;99.90
8459;DHT22;4266;48.816;9.154;2024-03-02T05:59:03;3.70;99.90
8459;DHT22;4266;48.816;9.154;2024-03-02T06:01:34;3.70;99.90
8459;DHT22;4266;48.816;9.154;2024-03-02T06:03:59;3.60;99.90
8459;DHT22;4266;48.816;9.154;2024-03-02T06:06:25;3.60;99.90
8459;DHT22;4266;48.816;9.154;2024-03-02T06:08:51;3.50;99.90
8459;DHT22;4266;48.816;9.154;2024-03-02T06:11:17;3.50;99.90
8459;DHT22;4266;48.816;9.154;2024-03-02T06:13:42;3.60;99.90
8459;DHT22;4266;48.816;9.154;2024-03-02T06:16:08;3.60;99.90
8459;DHT22;4266;48.816;9.154;2024-03-02T06:18:34;3.80;99.90
8459;DHT22;4266;48.816;9.154;2024-03-02T06:21:01;3.90;99.90
8459;DHT22;4266;48.816;9.154;2024-03-02T06:23:26;3.80;99.90
8459;DHT22;4266;48.816;9.154;2024-03-02T06:25:52;4.00;99.90
8459;DHT22;4266;48.816;9.154;2024-03-02T06:28:18;4.00;99.90
8459;DHT22;4266;48.816;9.154;2024-03-02T06:30:44;4.20;99.90
8459;DHT22;4266;48.816;9.154;2024-03-02T06:33:10;4.20;99.90
8459;DHT22;4266;48.816;9.154;2024-03-02T06:35:35;4.30;99.90
8459;DHT22;4266;48.816;9.154;2024-03-02T06:38:01;4.40;99.90
8459;DHT22;4266;48.816;9.154;2024-03-02T06:40:27;4.50;99.90
8459;DHT22;4266;48.816;9.154;2024-03-02T06:42:52;4.60;99.90
8459;DHT22;4266;48.816;9.154;2024-03-02T06:45:19;4.80;99.90
8459;DHT22;4266;48.816;9.154;2024-03-02T06:47:45;4.70;99.90
8459;DHT22;4266;48.816;9.154;2024-03-02T06:50:10;4.90;99.90
8459;DHT22;4266;48.816;9.154;2024-03-02T06:52:36;5.00;99.90
8459;DHT22;4266;48.816;9.154;2024-03-02T06:55:03;5.20;99.90
8459;DHT22;4266;48.816;9.154;2024-03-02T06:57:29;5.20;99.90
8459;DHT22;4266;48.816;9.154;2024-03-02T06:59:54;5.30;99.90
8459;DHT22;4266;48.816;9.154;2024-03-02T07:02:20;5.30;99.90
8459;DHT22;4266;48.816;9.154;2024-03-02T07:04:46;5.60;99.90
8459;DHT22;4266;48.816;9.154;2024-03-02T07:07:12;5.80;99.90
8459;DHT22;4266;48.816;9.154;2024-03-02T07:09:37;5.90;99.90
8459;DHT22;4266;48.816;9.154;2024-03-02T07:12:03;6.20;99.90
8459;DHT22;4266;48.816;9.154;2024-03-02T07:14:30;7.50;99.30
8459;DHT22;4266;48.816;9.154;2024-03-02T07:17:03;8.90;96.00
8459;DHT22;4266;48.816;9.154;2024-03-02T07:19:28;8.90;96.00
8459;DHT22;4266;48.816;9.154;2024-03-02T07:21:54;9.70;91.80
8459;DHT22;4266;48.816;9.154;2024-03-02T07:24:20;9.60;91.40
8459;DHT22;4266;48.816;9.154;2024-03-02T07:26:46;10.10;88.20
8459;DHT22;4266;48.816;9.154;2024-03-02T07:29:12;10.40;87.80
8459;DHT22;4266;48.816;9.154;2024-03-02T07:31:37;10.50;85.30
8459;DHT22;4266;48.816;9.154;2024-03-02T07:34:03;10.70;85.50
8459;DHT22;4266;48.816;9.154;2024-03-02T07:36:29;10.60;82.80
8459;DHT22;4266;48.816;9.154;2024-03-02T07:38:54;10.60;82.90
8459;DHT22;4266;48.816;9.154;2024-03-02T07:41:20;9.90;84.20
8459;DHT22;4266;48.816;9.154;2024-03-02T07:43:47;8.90;86.90
8459;DHT22;4266;48.816;9.154;2024-03-02T07:46:13;8.90;86.80
8459;DHT22;4266;48.816;9.154;2024-03-02T07:48:39;8.80;87.60
8459;DHT22;4266;48.816;9.154;2024-03-02T07:51:12;8.90;87.80
8459;DHT22;4266;48.816;9.154;2024-03-02T07:53:40;8.80;87.80
8459;DHT22;4266;48.816;9.154;2024-03-02T07:56:07;8.80;87.60
8459;DHT22;4266;48.816;9.154;2024-03-02T07:58:32;8.60;87.90
8459;DHT22;4266;48.816;9.154;2024-03-02T08:00:58;8.40;88.00
8459;DHT22;4266;48.816;9.154;2024-03-02T08:03:24;8.30;88.50
8459;DHT22;4266;48.816;9.154;2024-03-02T08:05:49;8.40;88.80
8459;DHT22;4266;48.816;9.154;2024-03-02T08:08:15;8.50;88.60
8459;DHT22;4266;48.816;9.154;2024-03-02T08:10:41;8.70;87.40
8459;DHT22;4266;48.816;9.154;2024-03-02T08:13:06;8.70;88.00
8459;DHT22;4266;48.816;9.154;2024-03-02T08:15:32;8.80;87.40
8459;DHT22;4266;48.816;9.154;2024-03-02T08:17:58;8.80;86.40
8459;DHT22;4266;48.816;9.154;2024-03-02T08:20:23;9.30;88.50
8459;DHT22;4266;48.816;9.154;2024-03-02T08:22:49;9.80;86.90
8459;DHT22;4266;48.816;9.154;2024-03-02T08:25:15;10.60;82.90
8459;DHT22;4266;48.816;9.154;2024-03-02T08:27:41;10.90;82.90
8459;DHT22;4266;48.816;9.154;2024-03-02T08:30:08;12.90;75.70
8459;DHT22;4266;48.816;9.154;2024-03-02T08:32:34;12.80;76.10
8459;DHT22;4266;48.816;9.154;2024-03-02T08:35:00;13.40;73.20
8459;DHT22;4266;48.816;9.154;2024-03-02T08:37:26;14.20;67.90
8459;DHT22;4266;48.816;9.154;2024-03-02T08:39:52;14.20;67.90
8459;DHT22;4266;48.816;9.154;2024-03-02T08:42:18;17.10;60.70
8459;DHT22;4266;48.816;9.154;2024-03-02T08:44:44;17.00;60.40
8459;DHT22;4266;48.816;9.154;2024-03-02T08:47:10;17.30;57.70
8459;DHT22;4266;48.816;9.154;2024-03-02T08:49:35;18.80;55.00
8459;DHT22;4266;48.816;9.154;2024-03-02T08:52:01;18.70;52.80
8459;DHT22;4266;48.816;9.154;2024-03-02T08:54:27;19.60;52.30
8459;DHT22;4266;48.816;9.154;2024-03-02T08:56:52;19.50;51.20
8459;DHT22;4266;48.816;9.154;2024-03-02T08:59:18;19.40;50.70
8459;DHT22;4266;48.816;9.154;2024-03-02T09:01:44;20.10;50.20
8459;DHT22;4266;48.816;9.154;2024-03-02T09:04:09;20.60;49.20
8459;DHT22;4266;48.816;9.154;2024-03-02T09:06:35;20.50;48.50
8459;DHT22;4266;48.816;9.154;2024-03-02T09:09:01;20.70;47.70
8459;DHT22;4266;48.816;9.154;2024-03-02T09:11:27;20.20;47.30
8459;DHT22;4266;48.816;9.154;2024-03-02T09:13:53;20.60;46.90
8459;DHT22;4266;48.816;9.154;2024-03-02T09:16:19;20.60;46.90
8459;DHT22;4266;48.816;9.154;2024-03-02T09:18:46;22.00;45.90
8459;DHT22;4266;48.816;9.154;2024-03-02T09:21:11;22.00;45.80
8459;DHT22;4266;48.816;9.154;2024-03-02T09:23:38;22.10;45.00
8459;DHT22;4266;48.816;9.154;2024-03-02T09:26:04;22.10;45.00
8459;DHT22;4266;48.816;9.154;2024-03-02T09:28:29;22.30;44.40
8459;DHT22;4266;48.816;9.154;2024-03-02T09:30:55;22.20;44.80
8459;DHT22;4266;48.816;9.154;2024-03-02T09:33:20;22.60;44.20
8459;DHT22;4266;48.816;9.154;2024-03-02T09:35:46;23.20;44.00
8459;DHT22;4266;48.816;9.154;2024-03-02T09:38:12;22.90;43.40
8459;DHT22;4266;48.816;9.154;2024-03-02T09:40:37;23.40;43.00
8459;DHT22;4266;48.816;9.154;2024-03-02T09:43:03;23.00;43.30
8459;DHT22;4266;48.816;9.154;2024-03-02T09:45:29;22.60;42.90
8459;DHT22;4266;48.816;9.154;2024-03-02T09:47:55;22.00;42.20
8459;DHT22;4266;48.816;9.154;2024-03-02T09:50:22;22.30;42.40
8459;DHT22;4266;48.816;9.154;2024-03-02T09:52:48;22.30;42.30
8459;DHT22;4266;48.816;9.154;2024-03-02T09:55:14;21.30;41.90
8459;DHT22;4266;48.816;9.154;2024-03-02T09:57:39;23.20;42.10
8459;DHT22;4266;48.816;9.154;2024-03-02T10:00:06;23.00;42.60
8459;DHT22;4266;48.816;9.154;2024-03-02T10:02:33;24.80;41.60
8459;DHT22;4266;48.816;9.154;2024-03-02T10:04:59;24.70;41.50
8459;DHT22;4266;48.816;9.154;2024-03-02T10:07:27;23.60;41.40
8459;DHT22;4266;48.816;9.154;2024-03-02T10:09:53;23.70;42.10
8459;DHT22;4266;48.816;9.154;2024-03-02T10:12:18;24.60;42.00
8459;DHT22;4266;48.816;9.154;2024-03-02T10:14:44;24.70;41.40
8459;DHT22;4266;48.816;9.154;2024-03-02T10:17:11;26.30;41.40
8459;DHT22;4266;48.816;9.154;2024-03-02T10:19:36;26.30;41.50
8459;DHT22;4266;48.816;9.154;2024-03-02T10:22:03;25.70;40.50
8459;DHT22;4266;48.816;9.154;2024-03-02T10:24:34;25.80;39.90
8459;DHT22;4266;48.816;9.154;2024-03-02T10:26:54;24.70;40.20
8459;DHT22;4266;48.816;9.154;2024-03-02T10:29:20;24.70;40.20
8459;DHT22;4266;48.816;9.154;2024-03-02T10:31:46;26.40;39.90
8459;DHT22;4266;48.816;9.154;2024-03-02T10:34:12;25.40;39.50
8459;DHT22;4266;48.816;9.154;2024-03-02T10:36:40;25.30;39.50
8459;DHT22;4266;48.816;9.154;2024-03-02T10:39:04;24.70;40.00
8459;DHT22;4266;48.816;9.154;2024-03-02T10:41:32;24.70;40.00
8459;DHT22;4266;48.816;9.154;2024-03-02T10:43:58;24.20;40.10
8459;DHT22;4266;48.816;9.154;2024-03-02T10:46:23;24.20;40.10
8459;DHT22;4266;48.816;9.154;2024-03-02T10:48:49;25.20;40.00
8459;DHT22;4266;48.816;9.154;2024-03-02T10:51:15;24.50;39.00
8459;DHT22;4266;48.816;9.154;2024-03-02T10:53:40;24.80;38.60
8459;DHT22;4266;48.816;9.154;2024-03-02T10:56:07;24.40;39.80
8459;DHT22;4266;48.816;9.154;2024-03-02T10:58:33;24.40;39.70
8459;DHT22;4266;48.816;9.154;2024-03-02T11:01:00;25.70;39.30
8459;DHT22;4266;48.816;9.154;2024-03-02T11:03:25;24.60;39.50
8459;DHT22;4266;48.816;9.154;2024-03-02T11:05:51;26.00;39.10
8459;DHT22;4266;48.816;9.154;2024-03-02T11:08:17;26.40;38.60
8459;DHT22;4266;48.816;9.154;2024-03-02T11:10:50;26.30;38.50
8459;DHT22;4266;48.816;9.154;2024-03-02T11:13:13;26.10;38.90
8459;DHT22;4266;48.816;9.154;2024-03-02T11:15:40;25.20;38.60
8459;DHT22;4266;48.816;9.154;2024-03-02T11:18:06;25.30;38.90
8459;DHT22;4266;48.816;9.154;2024-03-02T11:20:32;25.60;38.90
8459;DHT22;4266;48.816;9.154;2024-03-02T11:23:03;26.60;38.90
8459;DHT22;4266;48.816;9.154;2024-03-02T11:25:24;25.10;39.10
8459;DHT22;4266;48.816;9.154;2024-03-02T11:28:03;25.90;38.90
8459;DHT22;4266;48.816;9.154;2024-03-02T11:30:49;25.20;39.10
8459;DHT22;4266;48.816;9.154;2024-03-02T11:33:15;24.90;38.10
8459;DHT22;4266;48.816;9.154;2024-03-02T11:35:41;25.50;38.40
8459;DHT22;4266;48.816;9.154;2024-03-02T11:38:06;26.20;38.20
8459;DHT22;4266;48.816;9.154;2024-03-02T11:40:32;26.50;38.00
8459;DHT22;4266;48.816;9.154;2024-03-02T11:42:59;26.80;37.60
8459;DHT22;4266;48.816;9.154;2024-03-02T11:45:26;26.80;37.30
8459;DHT22;4266;48.816;9.154;2024-03-02T11:47:53;26.20;37.40
8459;DHT22;4266;48.816;9.154;2024-03-02T11:52:49;26.90;37.80
8459;DHT22;4266;48.816;9.154;2024-03-02T11:55:15;26.30;37.20
8459;DHT22;4266;48.816;9.154;2024-03-02T11:57:41;26.20;37.10
8459;DHT22;4266;48.816;9.154;2024-03-02T12:00:16;24.20;37.20
8459;DHT22;4266;48.816;9.154;2024-03-02T12:02:35;25.10;38.00
8459;DHT22;4266;48.816;9.154;2024-03-02T12:05:02;25.00;38.00
8459;DHT22;4266;48.816;9.154;2024-03-02T12:07:26;24.80;37.40
8459;DHT22;4266;48.816;9.154;2024-03-02T12:10:02;24.50;37.60
8459;DHT22;4266;48.816;9.154;2024-03-02T12:12:28;24.80;37.30
8459;DHT22;4266;48.816;9.154;2024-03-02T12:14:53;24.00;37.30
8459;DHT22;4266;48.816;9.154;2024-03-02T12:17:19;23.90;37.10
8459;DHT22;4266;48.816;9.154;2024-03-02T12:19:45;24.60;37.80
8459;DHT22;4266;48.816;9.154;2024-03-02T12:22:11;24.40;37.30
8459;DHT22;4266;48.816;9.154;2024-03-02T12:24:37;24.40;37.30
8459;DHT22;4266;48.816;9.154;2024-03-02T12:27:03;24.90;37.10
8459;DHT22;4266;48.816;9.154;2024-03-02T12:29:29;25.20;37.10
8459;DHT22;4266;48.816;9.154;2024-03-02T12:31:54;25.40;36.60
8459;DHT22;4266;48.816;9.154;2024-03-02T12:34:20;25.50;36.80
8459;DHT22;4266;48.816;9.154;2024-03-02T12:36:46;25.90;36.80
8459;DHT22;4266;48.816;9.154;2024-03-02T12:39:11;25.60;36.70
8459;DHT22;4266;48.816;9.154;2024-03-02T12:41:37;25.20;37.50
8459;DHT22;4266;48.816;9.154;2024-03-02T12:44:03;25.10;37.00
8459;DHT22;4266;48.816;9.154;2024-03-02T12:46:29;25.20;36.50
8459;DHT22;4266;48.816;9.154;2024-03-02T12:48:54;25.90;36.50
8459;DHT22;4266;48.816;9.154;2024-03-02T12:51:20;26.20;36.00
8459;DHT22;4266;48.816;9.154;2024-03-02T12:53:46;25.60;37.10
8459;DHT22;4266;48.816;9.154;2024-03-02T12:56:12;25.10;36.10
8459;DHT22;4266;48.816;9.154;2024-03-02T12:58:39;25.00;35.80
8459;DHT22;4266;48.816;9.154;2024-03-02T13:01:06;25.00;35.80
8459;DHT22;4266;48.816;9.154;2024-03-02T13:03:35;25.50;35.50
8459;DHT22;4266;48.816;9.154;2024-03-02T13:05:58;25.50;35.50
8459;DHT22;4266;48.816;9.154;2024-03-02T13:08:24;24.60;35.60
8459;DHT22;4266;48.816;9.154;2024-03-02T13:10:50;25.50;36.00
8459;DHT22;4266;48.816;9.154;2024-03-02T13:13:15;26.10;35.50
8459;DHT22;4266;48.816;9.154;2024-03-02T13:15:41;24.80;35.70
8459;DHT22;4266;48.816;9.154;2024-03-02T13:18:07;24.30;36.10
8459;DHT22;4266;48.816;9.154;2024-03-02T13:20:33;24.20;36.30
8459;DHT22;4266;48.816;9.154;2024-03-02T13:22:59;24.60;36.70
8459;DHT22;4266;48.816;9.154;2024-03-02T13:25:25;24.50;36.10
8459;DHT22;4266;48.816;9.154;2024-03-02T13:27:50;24.80;36.40
8459;DHT22;4266;48.816;9.154;2024-03-02T13:30:17;24.50;36.50
8459;DHT22;4266;48.816;9.154;2024-03-02T13:32:42;24.40;36.30
8459;DHT22;4266;48.816;9.154;2024-03-02T13:35:08;23.40;36.50
8459;DHT22;4266;48.816;9.154;2024-03-02T13:37:34;23.20;36.40
8459;DHT22;4266;48.816;9.154;2024-03-02T13:40:00;22.70;36.60
8459;DHT22;4266;48.816;9.154;2024-03-02T13:42:26;22.70;36.50
8459;DHT22;4266;48.816;9.154;2024-03-02T13:44:52;22.00;36.70
8459;DHT22;4266;48.816;9.154;2024-03-02T13:47:19;21.80;36.90
8459;DHT22;4266;48.816;9.154;2024-03-02T13:49:46;21.10;37.10
8459;DHT22;4266;48.816;9.154;2024-03-02T13:52:11;21.00;37.00
8459;DHT22;4266;48.816;9.154;2024-03-02T13:54:37;20.60;36.90
8459;DHT22;4266;48.816;9.154;2024-03-02T13:57:03;21.10;37.50
8459;DHT22;4266;48.816;9.154;2024-03-02T13:59:29;21.90;37.30
8459;DHT22;4266;48.816;9.154;2024-03-02T14:01:55;21.50;37.00
8459;DHT22;4266;48.816;9.154;2024-03-02T14:04:21;21.50;37.00
8459;DHT22;4266;48.816;9.154;2024-03-02T14:06:47;21.40;37.20
8459;DHT22;4266;48.816;9.154;2024-03-02T14:09:12;21.00;37.50
8459;DHT22;4266;48.816;9.154;2024-03-02T14:11:38;20.10;37.40
8459;DHT22;4266;48.816;9.154;2024-03-02T14:14:04;19.90;37.50
8459;DHT22;4266;48.816;9.154;2024-03-02T14:16:29;19.00;37.60
8459;DHT22;4266;48.816;9.154;2024-03-02T14:18:55;19.00;37.70
8459;DHT22;4266;48.816;9.154;2024-03-02T14:21:21;18.90;38.20
8459;DHT22;4266;48.816;9.154;2024-03-02T14:23:46;18.90;38.20
8459;DHT22;4266;48.816;9.154;2024-03-02T14:26:14;18.40;38.20
8459;DHT22;4266;48.816;9.154;2024-03-02T14:28:40;17.30;38.20
8459;DHT22;4266;48.816;9.154;2024-03-02T14:31:06;17.30;38.20
8459;DHT22;4266;48.816;9.154;2024-03-02T14:33:32;17.00;38.40
8459;DHT22;4266;48.816;9.154;2024-03-02T14:35:58;17.00;38.60
8459;DHT22;4266;48.816;9.154;2024-03-02T14:38:23;17.00;38.60
8459;DHT22;4266;48.816;9.154;2024-03-02T14:40:49;17.10;38.70
8459;DHT22;4266;48.816;9.154;2024-03-02T14:43:15;16.80;38.40
8459;DHT22;4266;48.816;9.154;2024-03-02T14:45:41;16.70;38.30
8459;DHT22;4266;48.816;9.154;2024-03-02T14:48:07;16.90;38.50
8459;DHT22;4266;48.816;9.154;2024-03-02T14:50:32;16.90;38.60
8459;DHT22;4266;48.816;9.154;2024-03-02T14:52:59;16.40;38.30
8459;DHT22;4266;48.816;9.154;2024-03-02T14:55:24;16.40;38.30
8459;DHT22;4266;48.816;9.154;2024-03-02T14:57:50;16.30;38.90
8459;DHT22;4266;48.816;9.154;2024-03-02T15:00:16;16.40;38.40
8459;DHT22;4266;48.816;9.154;2024-03-02T15:02:42;16.30;38.20
8459;DHT22;4266;48.816;9.154;2024-03-02T15:05:08;16.20;38.50
8459;DHT22;4266;48.816;9.154;2024-03-02T15:07:34;16.20;38.70
8459;DHT22;4266;48.816;9.154;2024-03-02T15:10:00;16.10;38.60
8459;DHT22;4266;48.816;9.154;2024-03-02T15:12:25;16.10;39.00
8459;DHT22;4266;48.816;9.154;2024-03-02T15:14:51;16.10;38.90
8459;DHT22;4266;48.816;9.154;2024-03-02T15:17:17;15.90;38.40
8459;DHT22;4266;48.816;9.154;2024-03-02T15:19:44;15.60;37.80
8459;DHT22;4266;48.816;9.154;2024-03-02T15:22:09;15.60;37.80
8459;DHT22;4266;48.816;9.154;2024-03-02T15:24:34;15.50;37.60
8459;DHT22;4266;48.816;9.154;2024-03-02T15:27:00;15.40;37.40
8459;DHT22;4266;48.816;9.154;2024-03-02T15:29:26;15.30;37.60
8459;DHT22;4266;48.816;9.154;2024-03-02T15:31:51;15.10;37.90
8459;DHT22;4266;48.816;9.154;2024-03-02T15:34:17;15.00;38.30
8459;DHT22;4266;48.816;9.154;2024-03-02T15:36:43;14.90;37.80
8459;DHT22;4266;48.816;9.154;2024-03-02T15:39:08;14.90;38.00
8459;DHT22;4266;48.816;9.154;2024-03-02T15:41:34;14.80;38.00
8459;DHT22;4266;48.816;9.154;2024-03-02T15:44:00;14.80;38.20
8459;DHT22;4266;48.816;9.154;2024-03-02T15:46:25;14.60;38.10
8459;DHT22;4266;48.816;9.154;2024-03-02T15:48:51;14.60;38.40
8459;DHT22;4266;48.816;9.154;2024-03-02T15:51:17;14.50;38.40
8459;DHT22;4266;48.816;9.154;2024-03-02T15:53:42;14.40;38.30
8459;DHT22;4266;48.816;9.154;2024-03-02T15:56:08;14.30;38.30
8459;DHT22;4266;48.816;9.154;2024-03-02T15:58:35;14.30;38.50
8459;DHT22;4266;48.816;9.154;2024-03-02T16:01:01;14.30;38.50
8459;DHT22;4266;48.816;9.154;2024-03-02T16:03:26;14.20;38.80
8459;DHT22;4266;48.816;9.154;2024-03-02T16:05:52;14.10;38.70
8459;DHT22;4266;48.816;9.154;2024-03-02T16:08:18;14.00;39.00